sensor_id;sensor_type;location;lat;lon;timestamp;P1;durP1;ratioP1;P2;durP2;ratioP2
39848;SDS011;25518;47.878;15.914;2023-06-04T00:00:01;4.35;;;2.40;;
39848;SDS011;25518;47.878;15.914;2023-06-04T00:02:52;5.15;;;2.53;;
39848;SDS011;25518;47.878;15.914;2023-06-04T00:05:41;6.07;;;2.50;;
39848;SDS011;25518;47.878;15.914;2023-06-04T00:08:31;4.45;;;2.53;;
39848;SDS011;25518;47.878;15.914;2023-06-04T00:11:21;5.75;;;2.42;;
39848;SDS011;25518;47.878;15.914;2023-06-04T00:14:12;4.45;;;2.65;;
39848;SDS011;25518;47.878;15.914;2023-06-04T00:17:02;4.68;;;2.97;;
39848;SDS011;25518;47.878;15.914;2023-06-04T00:19:52;6.43;;;2.80;;
39848;SDS011;25518;47.878;15.914;2023-06-04T00:22:41;5.43;;;2.50;;
39848;SDS011;25518;47.878;15.914;2023-06-04T00:25:31;5.75;;;3.05;;
39848;SDS011;25518;47.878;15.914;2023-06-04T00:28:20;8.43;;;3.00;;
39848;SDS011;25518;47.878;15.914;2023-06-04T00:31:10;6.53;;;2.78;;
39848;SDS011;25518;47.878;15.914;2023-06-04T00:34:02;5.10;;;2.28;;
39848;SDS011;25518;47.878;15.914;2023-06-04T00:36:52;6.10;;;2.53;;
39848;SDS011;25518;47.878;15.914;2023-06-04T00:39:42;4.40;;;2.53;;
39848;SDS011;25518;47.878;15.914;2023-06-04T00:42:32;3.95;;;2.40;;
39848;SDS011;25518;47.878;15.914;2023-06-04T00:45:21;4.83;;;2.40;;
39848;SDS011;25518;47.878;15.914;2023-06-04T00:48:14;4.45;;;2.33;;
39848;SDS011;25518;47.878;15.914;2023-06-04T00:51:04;7.28;;;2.72;;
39848;SDS011;25518;47.878;15.914;2023-06-04T00:53:53;6.28;;;2.83;;
39848;SDS011;25518;47.878;15.914;2023-06-04T00:56:43;4.05;;;2.30;;
39848;SDS011;25518;47.878;15.914;2023-06-04T00:59:34;5.30;;;2.25;;
39848;SDS011;25518;47.878;15.914;2023-06-04T01:02:27;5.75;;;2.55;;
39848;SDS011;25518;47.878;15.914;2023-06-04T01:05:21;6.28;;;2.55;;
39848;SDS011;25518;47.878;15.914;2023-06-04T01:08:18;6.32;;;3.00;;
39848;SDS011;25518;47.878;15.914;2023-06-04T01:11:08;5.22;;;2.40;;
39848;SDS011;25518;47.878;15.914;2023-06-04T01:13:58;5.10;;;2.67;;
39848;SDS011;25518;47.878;15.914;2023-06-04T01:16:56;5.07;;;2.38;;
39848;SDS011;25518;47.878;15.914;2023-06-04T01:23:09;6.25;;;2.95;;
39848;SDS011;25518;47.878;15.914;2023-06-04T01:26:23;4.97;;;2.25;;
39848;SDS011;25518;47.878;15.914;2023-06-04T01:29:15;6.00;;;2.65;;
39848;SDS011;25518;47.878;15.914;2023-06-04T01:32:05;6.15;;;2.50;;
39848;SDS011;25518;47.878;15.914;2023-06-04T01:34:56;4.53;;;2.60;;
39848;SDS011;25518;47.878;15.914;2023-06-04T01:37:46;5.05;;;3.00;;
39848;SDS011;25518;47.878;15.914;2023-06-04T01:40:36;5.55;;;2.67;;
39848;SDS011;25518;47.878;15.914;2023-06-04T01:43:25;4.33;;;2.60;;
39848;SDS011;25518;47.878;15.914;2023-06-04T01:46:15;4.90;;;2.40;;
39848;SDS011;25518;47.878;15.914;2023-06-04T01:49:04;4.85;;;2.42;;
39848;SDS011;25518;47.878;15.914;2023-06-04T01:51:55;4.97;;;2.70;;
39848;SDS011;25518;47.878;15.914;2023-06-04T01:54:45;7.70;;;2.92;;
39848;SDS011;25518;47.878;15.914;2023-06-04T01:57:35;4.43;;;2.30;;
39848;SDS011;25518;47.878;15.914;2023-06-04T02:00:25;4.35;;;2.40;;
39848;SDS011;25518;47.878;15.914;2023-06-04T02:03:15;5.82;;;2.72;;
39848;SDS011;25518;47.878;15.914;2023-06-04T02:06:05;4.72;;;2.47;;
39848;SDS011;25518;47.878;15.914;2023-06-04T02:08:56;5.28;;;2.75;;
39848;SDS011;25518;47.878;15.914;2023-06-04T02:11:45;5.63;;;2.85;;
39848;SDS011;25518;47.878;15.914;2023-06-04T02:14:35;5.20;;;2.70;;
39848;SDS011;25518;47.878;15.914;2023-06-04T02:17:25;6.28;;;2.78;;
39848;SDS011;25518;47.878;15.914;2023-06-04T02:20:15;5.10;;;2.65;;
39848;SDS011;25518;47.878;15.914;2023-06-04T02:23:06;7.63;;;2.73;;
39848;SDS011;25518;47.878;15.914;2023-06-04T02:25:55;5.60;;;2.88;;
39848;SDS011;25518;47.878;15.914;2023-06-04T02:28:45;5.80;;;2.72;;
39848;SDS011;25518;47.878;15.914;2023-06-04T02:31:35;4.80;;;2.75;;
39848;SDS011;25518;47.878;15.914;2023-06-04T02:34:24;5.05;;;2.72;;
39848;SDS011;25518;47.878;15.914;2023-06-04T02:37:14;5.32;;;2.40;;
39848;SDS011;25518;47.878;15.914;2023-06-04T02:40:04;5.20;;;2.58;;
39848;SDS011;25518;47.878;15.914;2023-06-04T02:42:56;4.75;;;2.80;;
39848;SDS011;25518;47.878;15.914;2023-06-04T02:45:46;4.90;;;2.67;;
39848;SDS011;25518;47.878;15.914;2023-06-04T02:48:35;5.38;;;2.47;;
39848;SDS011;25518;47.878;15.914;2023-06-04T02:51:25;8.73;;;2.72;;
39848;SDS011;25518;47.878;15.914;2023-06-04T02:54:14;6.85;;;2.92;;
39848;SDS011;25518;47.878;15.914;2023-06-04T02:57:05;6.25;;;2.80;;
39848;SDS011;25518;47.878;15.914;2023-06-04T02:59:56;4.47;;;2.43;;
39848;SDS011;25518;47.878;15.914;2023-06-04T03:18:07;4.85;;;2.75;;
39848;SDS011;25518;47.878;15.914;2023-06-04T03:20:56;4.20;;;2.30;;
39848;SDS011;25518;47.878;15.914;2023-06-04T03:23:46;4.80;;;2.70;;
39848;SDS011;25518;47.878;15.914;2023-06-04T03:26:36;4.70;;;2.83;;
39848;SDS011;25518;47.878;15.914;2023-06-04T03:29:25;5.10;;;2.20;;
39848;SDS011;25518;47.878;15.914;2023-06-04T03:32:15;7.20;;;2.90;;
39848;SDS011;25518;47.878;15.914;2023-06-04T03:35:05;4.30;;;2.50;;
39848;SDS011;25518;47.878;15.914;2023-06-04T03:37:55;6.68;;;2.88;;
39848;SDS011;25518;47.878;15.914;2023-06-04T03:40:45;6.18;;;3.25;;
39848;SDS011;25518;47.878;15.914;2023-06-04T03:43:35;4.68;;;2.70;;
39848;SDS011;25518;47.878;15.914;2023-06-04T03:46:25;8.17;;;2.70;;
39848;SDS011;25518;47.878;15.914;2023-06-04T03:49:17;4.93;;;2.65;;
39848;SDS011;25518;47.878;15.914;2023-06-04T03:52:08;4.40;;;2.60;;
39848;SDS011;25518;47.878;15.914;2023-06-04T03:54:57;7.30;;;3.08;;
39848;SDS011;25518;47.878;15.914;2023-06-04T03:57:48;5.00;;;2.70;;
39848;SDS011;25518;47.878;15.914;2023-06-04T04:00:38;5.85;;;2.65;;
39848;SDS011;25518;47.878;15.914;2023-06-04T04:03:28;7.15;;;2.70;;
39848;SDS011;25518;47.878;15.914;2023-06-04T04:06:20;5.55;;;2.70;;
39848;SDS011;25518;47.878;15.914;2023-06-04T04:09:10;4.45;;;2.58;;
39848;SDS011;25518;47.878;15.914;2023-06-04T04:12:00;19.55;;;3.90;;
39848;SDS011;25518;47.878;15.914;2023-06-04T04:14:50;4.60;;;2.77;;
39848;SDS011;25518;47.878;15.914;2023-06-04T04:17:39;5.30;;;3.00;;
39848;SDS011;25518;47.878;15.914;2023-06-04T04:20:30;4.93;;;2.92;;
39848;SDS011;25518;47.878;15.914;2023-06-04T04:23:19;5.07;;;3.00;;
39848;SDS011;25518;47.878;15.914;2023-06-04T04:26:09;5.85;;;3.05;;
39848;SDS011;25518;47.878;15.914;2023-06-04T04:29:00;7.90;;;3.63;;
39848;SDS011;25518;47.878;15.914;2023-06-04T04:31:51;4.30;;;2.80;;
39848;SDS011;25518;47.878;15.914;2023-06-04T04:34:49;5.97;;;3.10;;
39848;SDS011;25518;47.878;15.914;2023-06-04T04:37:41;5.15;;;2.70;;
39848;SDS011;25518;47.878;15.914;2023-06-04T04:40:30;6.30;;;3.42;;
39848;SDS011;25518;47.878;15.914;2023-06-04T04:43:36;5.32;;;3.13;;
39848;SDS011;25518;47.878;15.914;2023-06-04T04:46:27;4.78;;;2.78;;
39848;SDS011;25518;47.878;15.914;2023-06-04T04:49:17;5.05;;;2.97;;
39848;SDS011;25518;47.878;15.914;2023-06-04T04:52:07;6.15;;;2.97;;
39848;SDS011;25518;47.878;15.914;2023-06-04T04:54:56;5.70;;;3.00;;
39848;SDS011;25518;47.878;15.914;2023-06-04T04:57:46;7.20;;;3.17;;
39848;SDS011;25518;47.878;15.914;2023-06-04T05:00:36;4.32;;;2.63;;
39848;SDS011;25518;47.878;15.914;2023-06-04T05:03:26;6.03;;;3.00;;
39848;SDS011;25518;47.878;15.914;2023-06-04T05:06:15;4.70;;;2.75;;
39848;SDS011;25518;47.878;15.914;2023-06-04T05:09:04;5.97;;;3.03;;
39848;SDS011;25518;47.878;15.914;2023-06-04T05:11:54;4.93;;;2.90;;
39848;SDS011;25518;47.878;15.914;2023-06-04T05:14:44;4.68;;;2.53;;
39848;SDS011;25518;47.878;15.914;2023-06-04T05:17:35;5.35;;;2.95;;
39848;SDS011;25518;47.878;15.914;2023-06-04T05:20:24;9.38;;;3.35;;
39848;SDS011;25518;47.878;15.914;2023-06-04T05:23:14;8.63;;;3.15;;
39848;SDS011;25518;47.878;15.914;2023-06-04T05:26:03;5.85;;;3.13;;
39848;SDS011;25518;47.878;15.914;2023-06-04T05:28:53;4.68;;;2.70;;
39848;SDS011;25518;47.878;15.914;2023-06-04T05:31:43;6.25;;;3.38;;
39848;SDS011;25518;47.878;15.914;2023-06-04T05:34:33;5.30;;;3.10;;
39848;SDS011;25518;47.878;15.914;2023-06-04T05:37:25;4.53;;;2.50;;
39848;SDS011;25518;47.878;15.914;2023-06-04T05:40:16;5.37;;;3.03;;
39848;SDS011;25518;47.878;15.914;2023-06-04T05:43:05;8.57;;;3.33;;
39848;SDS011;25518;47.878;15.914;2023-06-04T05:45:56;9.10;;;2.90;;
39848;SDS011;25518;47.878;15.914;2023-06-04T05:48:46;4.57;;;2.90;;
39848;SDS011;25518;47.878;15.914;2023-06-04T05:51:35;4.90;;;3.13;;
39848;SDS011;25518;47.878;15.914;2023-06-04T05:54:26;4.57;;;2.93;;
39848;SDS011;25518;47.878;15.914;2023-06-04T05:57:19;5.30;;;3.00;;
39848;SDS011;25518;47.878;15.914;2023-06-04T06:00:09;7.47;;;3.00;;
39848;SDS011;25518;47.878;15.914;2023-06-04T06:03:00;6.90;;;3.40;;
39848;SDS011;25518;47.878;15.914;2023-06-04T06:05:50;6.05;;;3.25;;
39848;SDS011;25518;47.878;15.914;2023-06-04T06:08:40;6.07;;;3.40;;
39848;SDS011;25518;47.878;15.914;2023-06-04T06:11:29;6.07;;;3.30;;
39848;SDS011;25518;47.878;15.914;2023-06-04T06:14:19;5.57;;;2.97;;
39848;SDS011;25518;47.878;15.914;2023-06-04T06:17:09;5.93;;;3.47;;
39848;SDS011;25518;47.878;15.914;2023-06-04T06:19:59;6.18;;;3.53;;
39848;SDS011;25518;47.878;15.914;2023-06-04T06:22:49;5.00;;;3.33;;
39848;SDS011;25518;47.878;15.914;2023-06-04T06:25:38;6.87;;;3.33;;
39848;SDS011;25518;47.878;15.914;2023-06-04T06:28:29;7.10;;;3.63;;
39848;SDS011;25518;47.878;15.914;2023-06-04T06:31:19;7.50;;;3.60;;
39848;SDS011;25518;47.878;15.914;2023-06-04T06:34:09;5.60;;;3.50;;
39848;SDS011;25518;47.878;15.914;2023-06-04T06:36:58;6.93;;;3.33;;
39848;SDS011;25518;47.878;15.914;2023-06-04T06:39:48;5.00;;;2.90;;
39848;SDS011;25518;47.878;15.914;2023-06-04T06:42:38;7.00;;;3.08;;
39848;SDS011;25518;47.878;15.914;2023-06-04T06:45:27;6.10;;;3.50;;
39848;SDS011;25518;47.878;15.914;2023-06-04T06:48:17;6.78;;;3.67;;
39848;SDS011;25518;47.878;15.914;2023-06-04T06:51:06;10.43;;;4.43;;
39848;SDS011;25518;47.878;15.914;2023-06-04T06:53:56;8.43;;;4.70;;
39848;SDS011;25518;47.878;15.914;2023-06-04T06:56:46;7.53;;;4.13;;
39848;SDS011;25518;47.878;15.914;2023-06-04T06:59:37;7.20;;;3.60;;
39848;SDS011;25518;47.878;15.914;2023-06-04T07:02:26;7.72;;;3.75;;
39848;SDS011;25518;47.878;15.914;2023-06-04T07:05:17;7.95;;;3.72;;
39848;SDS011;25518;47.878;15.914;2023-06-04T07:08:06;7.18;;;3.70;;
39848;SDS011;25518;47.878;15.914;2023-06-04T07:10:56;9.65;;;3.60;;
39848;SDS011;25518;47.878;15.914;2023-06-04T07:13:46;7.00;;;3.30;;
39848;SDS011;25518;47.878;15.914;2023-06-04T07:16:36;7.07;;;3.28;;
39848;SDS011;25518;47.878;15.914;2023-06-04T07:19:26;8.43;;;3.72;;
39848;SDS011;25518;47.878;15.914;2023-06-04T07:22:16;5.82;;;3.22;;
39848;SDS011;25518;47.878;15.914;2023-06-04T07:25:05;4.68;;;3.08;;
39848;SDS011;25518;47.878;15.914;2023-06-04T07:27:55;6.00;;;3.53;;
39848;SDS011;25518;47.878;15.914;2023-06-04T07:30:46;7.15;;;3.60;;
39848;SDS011;25518;47.878;15.914;2023-06-04T07:33:36;9.65;;;4.28;;
39848;SDS011;25518;47.878;15.914;2023-06-04T07:36:31;8.48;;;3.92;;
39848;SDS011;25518;47.878;15.914;2023-06-04T07:39:21;7.90;;;3.95;;
39848;SDS011;25518;47.878;15.914;2023-06-04T07:42:10;8.00;;;4.05;;
39848;SDS011;25518;47.878;15.914;2023-06-04T07:45:00;7.40;;;3.65;;
39848;SDS011;25518;47.878;15.914;2023-06-04T07:47:50;7.30;;;3.90;;
39848;SDS011;25518;47.878;15.914;2023-06-04T07:50:40;8.07;;;3.55;;
39848;SDS011;25518;47.878;15.914;2023-06-04T07:53:30;7.85;;;3.70;;
39848;SDS011;25518;47.878;15.914;2023-06-04T07:56:19;5.82;;;3.60;;
39848;SDS011;25518;47.878;15.914;2023-06-04T07:59:09;8.07;;;4.30;;
39848;SDS011;25518;47.878;15.914;2023-06-04T08:01:59;9.93;;;3.40;;
39848;SDS011;25518;47.878;15.914;2023-06-04T08:04:49;8.88;;;4.78;;
39848;SDS011;25518;47.878;15.914;2023-06-04T08:07:40;8.05;;;3.85;;
39848;SDS011;25518;47.878;15.914;2023-06-04T08:10:30;6.75;;;3.25;;
39848;SDS011;25518;47.878;15.914;2023-06-04T08:13:20;9.20;;;3.70;;
39848;SDS011;25518;47.878;15.914;2023-06-04T08:16:10;6.45;;;3.58;;
39848;SDS011;25518;47.878;15.914;2023-06-04T08:18:59;7.93;;;3.97;;
39848;SDS011;25518;47.878;15.914;2023-06-04T08:21:49;9.95;;;4.03;;
39848;SDS011;25518;47.878;15.914;2023-06-04T08:24:39;6.70;;;3.90;;
39848;SDS011;25518;47.878;15.914;2023-06-04T08:27:29;6.82;;;3.70;;
39848;SDS011;25518;47.878;15.914;2023-06-04T08:30:19;8.53;;;3.97;;
39848;SDS011;25518;47.878;15.914;2023-06-04T08:33:10;8.45;;;4.15;;
39848;SDS011;25518;47.878;15.914;2023-06-04T08:36:00;9.88;;;4.03;;
39848;SDS011;25518;47.878;15.914;2023-06-04T08:38:49;6.53;;;3.88;;
39848;SDS011;25518;47.878;15.914;2023-06-04T08:41:43;9.68;;;4.10;;
39848;SDS011;25518;47.878;15.914;2023-06-04T08:44:33;6.47;;;3.60;;
39848;SDS011;25518;47.878;15.914;2023-06-04T08:47:24;7.10;;;4.13;;
39848;SDS011;25518;47.878;15.914;2023-06-04T08:50:19;7.43;;;4.05;;
39848;SDS011;25518;47.878;15.914;2023-06-04T08:53:11;7.55;;;4.07;;
39848;SDS011;25518;47.878;15.914;2023-06-04T08:56:04;7.30;;;3.90;;
39848;SDS011;25518;47.878;15.914;2023-06-04T08:58:56;7.10;;;3.90;;
39848;SDS011;25518;47.878;15.914;2023-06-04T09:01:51;7.63;;;4.10;;
39848;SDS011;25518;47.878;15.914;2023-06-04T09:04:43;8.50;;;4.00;;
39848;SDS011;25518;47.878;15.914;2023-06-04T09:07:35;7.63;;;4.10;;
39848;SDS011;25518;47.878;15.914;2023-06-04T09:10:26;6.95;;;4.20;;
39848;SDS011;25518;47.878;15.914;2023-06-04T09:13:18;8.25;;;4.43;;
39848;SDS011;25518;47.878;15.914;2023-06-04T09:16:10;8.55;;;3.95;;
39848;SDS011;25518;47.878;15.914;2023-06-04T09:19:00;7.75;;;4.40;;
39848;SDS011;25518;47.878;15.914;2023-06-04T09:21:52;8.77;;;4.20;;
39848;SDS011;25518;47.878;15.914;2023-06-04T09:24:44;8.67;;;4.40;;
39848;SDS011;25518;47.878;15.914;2023-06-04T09:27:39;7.70;;;3.95;;
39848;SDS011;25518;47.878;15.914;2023-06-04T09:30:29;7.35;;;4.43;;
39848;SDS011;25518;47.878;15.914;2023-06-04T09:33:18;6.50;;;4.30;;
39848;SDS011;25518;47.878;15.914;2023-06-04T09:36:09;9.73;;;4.43;;
39848;SDS011;25518;47.878;15.914;2023-06-04T09:39:00;7.45;;;3.97;;
39848;SDS011;25518;47.878;15.914;2023-06-04T09:42:06;9.27;;;4.15;;
39848;SDS011;25518;47.878;15.914;2023-06-04T09:44:57;7.45;;;4.18;;
39848;SDS011;25518;47.878;15.914;2023-06-04T09:47:50;7.43;;;4.43;;
39848;SDS011;25518;47.878;15.914;2023-06-04T09:50:40;7.88;;;4.20;;
39848;SDS011;25518;47.878;15.914;2023-06-04T09:53:33;6.80;;;4.17;;
39848;SDS011;25518;47.878;15.914;2023-06-04T09:56:23;5.82;;;3.80;;
39848;SDS011;25518;47.878;15.914;2023-06-04T09:59:15;7.07;;;3.90;;
39848;SDS011;25518;47.878;15.914;2023-06-04T10:02:06;7.05;;;4.13;;
39848;SDS011;25518;47.878;15.914;2023-06-04T10:05:00;8.30;;;4.20;;
39848;SDS011;25518;47.878;15.914;2023-06-04T10:07:51;8.50;;;4.85;;
39848;SDS011;25518;47.878;15.914;2023-06-04T10:10:41;9.60;;;4.43;;
39848;SDS011;25518;47.878;15.914;2023-06-04T10:13:38;8.63;;;4.68;;
39848;SDS011;25518;47.878;15.914;2023-06-04T10:16:37;6.88;;;4.63;;
39848;SDS011;25518;47.878;15.914;2023-06-04T10:19:28;7.50;;;4.03;;
39848;SDS011;25518;47.878;15.914;2023-06-04T10:22:19;6.97;;;3.80;;
39848;SDS011;25518;47.878;15.914;2023-06-04T10:25:10;7.20;;;3.90;;
39848;SDS011;25518;47.878;15.914;2023-06-04T10:28:00;7.07;;;4.30;;
39848;SDS011;25518;47.878;15.914;2023-06-04T10:30:51;7.07;;;3.90;;
39848;SDS011;25518;47.878;15.914;2023-06-04T10:33:41;6.53;;;3.75;;
39848;SDS011;25518;47.878;15.914;2023-06-04T10:36:31;7.30;;;4.20;;
39848;SDS011;25518;47.878;15.914;2023-06-04T10:39:31;6.88;;;4.20;;
39848;SDS011;25518;47.878;15.914;2023-06-04T10:42:22;7.18;;;4.13;;
39848;SDS011;25518;47.878;15.914;2023-06-04T10:45:13;7.90;;;4.60;;
39848;SDS011;25518;47.878;15.914;2023-06-04T10:48:03;7.18;;;4.38;;
39848;SDS011;25518;47.878;15.914;2023-06-04T10:50:54;8.43;;;4.10;;
39848;SDS011;25518;47.878;15.914;2023-06-04T10:53:44;7.50;;;4.07;;
39848;SDS011;25518;47.878;15.914;2023-06-04T10:56:34;7.15;;;4.00;;
39848;SDS011;25518;47.878;15.914;2023-06-04T10:59:25;10.07;;;3.72;;
39848;SDS011;25518;47.878;15.914;2023-06-04T11:02:14;7.20;;;4.13;;
39848;SDS011;25518;47.878;15.914;2023-06-04T11:05:05;7.50;;;4.15;;
39848;SDS011;25518;47.878;15.914;2023-06-04T11:07:57;9.43;;;4.25;;
39848;SDS011;25518;47.878;15.914;2023-06-04T11:10:47;8.02;;;4.13;;
39848;SDS011;25518;47.878;15.914;2023-06-04T11:13:36;6.80;;;3.90;;
39848;SDS011;25518;47.878;15.914;2023-06-04T11:16:26;8.32;;;4.07;;
39848;SDS011;25518;47.878;15.914;2023-06-04T11:19:16;7.25;;;4.20;;
39848;SDS011;25518;47.878;15.914;2023-06-04T11:22:05;6.78;;;4.15;;
39848;SDS011;25518;47.878;15.914;2023-06-04T11:25:02;6.30;;;3.70;;
39848;SDS011;25518;47.878;15.914;2023-06-04T11:27:52;8.23;;;4.30;;
39848;SDS011;25518;47.878;15.914;2023-06-04T11:30:43;8.60;;;3.93;;
39848;SDS011;25518;47.878;15.914;2023-06-04T11:33:44;7.18;;;4.18;;
39848;SDS011;25518;47.878;15.914;2023-06-04T11:36:35;6.07;;;4.30;;
39848;SDS011;25518;47.878;15.914;2023-06-04T11:39:33;6.57;;;3.73;;
39848;SDS011;25518;47.878;15.914;2023-06-04T11:42:28;9.98;;;4.32;;
39848;SDS011;25518;47.878;15.914;2023-06-04T11:45:20;7.43;;;4.35;;
39848;SDS011;25518;47.878;15.914;2023-06-04T11:48:11;5.88;;;3.90;;
39848;SDS011;25518;47.878;15.914;2023-06-04T11:51:06;7.53;;;3.70;;
39848;SDS011;25518;47.878;15.914;2023-06-04T11:53:57;6.93;;;3.93;;
39848;SDS011;25518;47.878;15.914;2023-06-04T11:56:48;7.63;;;4.00;;
39848;SDS011;25518;47.878;15.914;2023-06-04T11:59:39;8.68;;;4.40;;
39848;SDS011;25518;47.878;15.914;2023-06-04T12:02:29;7.05;;;4.40;;
39848;SDS011;25518;47.878;15.914;2023-06-04T12:05:20;6.63;;;4.10;;
39848;SDS011;25518;47.878;15.914;2023-06-04T12:08:12;7.82;;;4.75;;
39848;SDS011;25518;47.878;15.914;2023-06-04T12:11:01;9.52;;;4.57;;
39848;SDS011;25518;47.878;15.914;2023-06-04T12:13:51;10.40;;;4.38;;
39848;SDS011;25518;47.878;15.914;2023-06-04T12:16:41;7.90;;;4.38;;
39848;SDS011;25518;47.878;15.914;2023-06-04T12:19:30;6.17;;;4.07;;
39848;SDS011;25518;47.878;15.914;2023-06-04T12:22:21;10.93;;;4.20;;
39848;SDS011;25518;47.878;15.914;2023-06-04T12:25:11;7.32;;;4.65;;
39848;SDS011;25518;47.878;15.914;2023-06-04T12:28:01;8.23;;;4.32;;
39848;SDS011;25518;47.878;15.914;2023-06-04T12:30:53;9.85;;;4.53;;
39848;SDS011;25518;47.878;15.914;2023-06-04T12:33:42;7.57;;;4.90;;
39848;SDS011;25518;47.878;15.914;2023-06-04T12:36:32;14.57;;;4.53;;
39848;SDS011;25518;47.878;15.914;2023-06-04T12:39:23;9.90;;;4.55;;
39848;SDS011;25518;47.878;15.914;2023-06-04T12:42:13;9.57;;;4.70;;
39848;SDS011;25518;47.878;15.914;2023-06-04T12:45:02;8.23;;;4.90;;
39848;SDS011;25518;47.878;15.914;2023-06-04T12:47:52;6.55;;;4.53;;
39848;SDS011;25518;47.878;15.914;2023-06-04T12:50:42;7.45;;;4.50;;
39848;SDS011;25518;47.878;15.914;2023-06-04T12:53:32;6.53;;;4.20;;
39848;SDS011;25518;47.878;15.914;2023-06-04T12:56:21;8.73;;;4.57;;
39848;SDS011;25518;47.878;15.914;2023-06-04T12:59:11;6.78;;;4.70;;
39848;SDS011;25518;47.878;15.914;2023-06-04T13:02:01;8.32;;;4.20;;
39848;SDS011;25518;47.878;15.914;2023-06-04T13:04:50;7.15;;;4.43;;
39848;SDS011;25518;47.878;15.914;2023-06-04T13:07:45;8.70;;;3.75;;
39848;SDS011;25518;47.878;15.914;2023-06-04T13:10:34;6.22;;;3.75;;
39848;SDS011;25518;47.878;15.914;2023-06-04T13:13:24;7.00;;;3.95;;
39848;SDS011;25518;47.878;15.914;2023-06-04T13:16:14;5.90;;;3.58;;
39848;SDS011;25518;47.878;15.914;2023-06-04T13:19:05;6.40;;;3.75;;
39848;SDS011;25518;47.878;15.914;2023-06-04T13:21:56;6.33;;;3.10;;
39848;SDS011;25518;47.878;15.914;2023-06-04T13:24:46;6.30;;;3.20;;
39848;SDS011;25518;47.878;15.914;2023-06-04T13:27:35;5.30;;;3.13;;
39848;SDS011;25518;47.878;15.914;2023-06-04T13:30:25;7.40;;;3.42;;
39848;SDS011;25518;47.878;15.914;2023-06-04T13:33:15;6.85;;;2.78;;
39848;SDS011;25518;47.878;15.914;2023-06-04T13:36:05;5.70;;;2.70;;
39848;SDS011;25518;47.878;15.914;2023-06-04T13:38:55;5.03;;;2.83;;
39848;SDS011;25518;47.878;15.914;2023-06-04T13:41:45;6.88;;;2.80;;
39848;SDS011;25518;47.878;15.914;2023-06-04T13:44:34;4.72;;;2.53;;
39848;SDS011;25518;47.878;15.914;2023-06-04T13:47:24;8.02;;;3.03;;
39848;SDS011;25518;47.878;15.914;2023-06-04T13:50:14;5.45;;;2.95;;
39848;SDS011;25518;47.878;15.914;2023-06-04T13:53:04;5.80;;;2.30;;
39848;SDS011;25518;47.878;15.914;2023-06-04T13:55:54;5.68;;;2.58;;
39848;SDS011;25518;47.878;15.914;2023-06-04T13:58:46;5.35;;;2.58;;
39848;SDS011;25518;47.878;15.914;2023-06-04T14:01:36;7.97;;;2.47;;
39848;SDS011;25518;47.878;15.914;2023-06-04T14:04:25;5.75;;;2.65;;
39848;SDS011;25518;47.878;15.914;2023-06-04T14:07:15;5.37;;;2.53;;
39848;SDS011;25518;47.878;15.914;2023-06-04T14:10:05;6.03;;;2.28;;
39848;SDS011;25518;47.878;15.914;2023-06-04T14:12:56;6.28;;;2.70;;
39848;SDS011;25518;47.878;15.914;2023-06-04T14:15:45;6.60;;;2.60;;
39848;SDS011;25518;47.878;15.914;2023-06-04T14:18:35;7.20;;;2.20;;
39848;SDS011;25518;47.878;15.914;2023-06-04T14:21:24;5.93;;;2.60;;
39848;SDS011;25518;47.878;15.914;2023-06-04T14:24:15;5.40;;;2.67;;
39848;SDS011;25518;47.878;15.914;2023-06-04T14:27:05;6.32;;;2.40;;
39848;SDS011;25518;47.878;15.914;2023-06-04T14:29:55;4.18;;;2.20;;
39848;SDS011;25518;47.878;15.914;2023-06-04T14:32:45;4.22;;;2.20;;
39848;SDS011;25518;47.878;15.914;2023-06-04T14:35:35;19.90;;;9.68;;
39848;SDS011;25518;47.878;15.914;2023-06-04T14:38:25;4.57;;;2.65;;
39848;SDS011;25518;47.878;15.914;2023-06-04T14:41:15;4.00;;;2.22;;
39848;SDS011;25518;47.878;15.914;2023-06-04T14:44:04;5.97;;;2.53;;
39848;SDS011;25518;47.878;15.914;2023-06-04T14:46:54;4.70;;;2.60;;
39848;SDS011;25518;47.878;15.914;2023-06-04T14:49:43;6.28;;;3.10;;
39848;SDS011;25518;47.878;15.914;2023-06-04T14:52:33;6.88;;;2.60;;
39848;SDS011;25518;47.878;15.914;2023-06-04T14:55:24;5.90;;;2.88;;
39848;SDS011;25518;47.878;15.914;2023-06-04T14:58:14;8.05;;;3.30;;
39848;SDS011;25518;47.878;15.914;2023-06-04T15:01:04;6.22;;;2.83;;
39848;SDS011;25518;47.878;15.914;2023-06-04T15:03:54;7.78;;;3.13;;
39848;SDS011;25518;47.878;15.914;2023-06-04T15:06:44;5.35;;;2.90;;
39848;SDS011;25518;47.878;15.914;2023-06-04T15:09:34;4.53;;;2.97;;
39848;SDS011;25518;47.878;15.914;2023-06-04T15:12:23;6.40;;;3.10;;
39848;SDS011;25518;47.878;15.914;2023-06-04T15:15:13;6.63;;;2.90;;
39848;SDS011;25518;47.878;15.914;2023-06-04T15:18:03;6.95;;;3.10;;
39848;SDS011;25518;47.878;15.914;2023-06-04T15:20:55;5.32;;;2.90;;
39848;SDS011;25518;47.878;15.914;2023-06-04T15:23:44;6.05;;;3.00;;
39848;SDS011;25518;47.878;15.914;2023-06-04T15:26:37;7.47;;;3.05;;
39848;SDS011;25518;47.878;15.914;2023-06-04T15:29:26;7.82;;;3.28;;
39848;SDS011;25518;47.878;15.914;2023-06-04T15:32:16;6.32;;;3.42;;
39848;SDS011;25518;47.878;15.914;2023-06-04T15:35:06;6.70;;;3.30;;
39848;SDS011;25518;47.878;15.914;2023-06-04T15:37:56;5.88;;;3.13;;
39848;SDS011;25518;47.878;15.914;2023-06-04T15:40:45;7.15;;;2.88;;
39848;SDS011;25518;47.878;15.914;2023-06-04T15:43:35;8.52;;;3.03;;
39848;SDS011;25518;47.878;15.914;2023-06-04T15:46:25;6.78;;;3.40;;
39848;SDS011;25518;47.878;15.914;2023-06-04T15:49:14;6.53;;;3.35;;
39848;SDS011;25518;47.878;15.914;2023-06-04T15:52:05;7.03;;;2.72;;
39848;SDS011;25518;47.878;15.914;2023-06-04T15:54:55;6.30;;;2.83;;
39848;SDS011;25518;47.878;15.914;2023-06-04T15:57:45;7.18;;;3.05;;
39848;SDS011;25518;47.878;15.914;2023-06-04T16:00:34;6.70;;;2.97;;
39848;SDS011;25518;47.878;15.914;2023-06-04T16:03:24;6.70;;;3.22;;
39848;SDS011;25518;47.878;15.914;2023-06-04T16:06:14;8.13;;;3.20;;
39848;SDS011;25518;47.878;15.914;2023-06-04T16:09:03;4.93;;;2.70;;
39848;SDS011;25518;47.878;15.914;2023-06-04T16:11:54;8.77;;;3.47;;
39848;SDS011;25518;47.878;15.914;2023-06-04T16:14:43;8.27;;;3.10;;
39848;SDS011;25518;47.878;15.914;2023-06-04T16:17:33;5.88;;;3.20;;
39848;SDS011;25518;47.878;15.914;2023-06-04T16:20:22;8.13;;;3.08;;
39848;SDS011;25518;47.878;15.914;2023-06-04T16:23:12;6.43;;;2.70;;
39848;SDS011;25518;47.878;15.914;2023-06-04T16:26:02;6.47;;;2.90;;
39848;SDS011;25518;47.878;15.914;2023-06-04T16:28:52;7.78;;;3.60;;
39848;SDS011;25518;47.878;15.914;2023-06-04T16:31:42;11.80;;;3.30;;
39848;SDS011;25518;47.878;15.914;2023-06-04T16:34:32;8.27;;;2.85;;
39848;SDS011;25518;47.878;15.914;2023-06-04T16:37:21;8.10;;;3.15;;
39848;SDS011;25518;47.878;15.914;2023-06-04T16:40:11;10.45;;;3.08;;
39848;SDS011;25518;47.878;15.914;2023-06-04T16:43:00;8.00;;;3.67;;
39848;SDS011;25518;47.878;15.914;2023-06-04T16:45:50;9.80;;;3.15;;
39848;SDS011;25518;47.878;15.914;2023-06-04T16:48:40;6.97;;;3.00;;
39848;SDS011;25518;47.878;15.914;2023-06-04T16:51:30;7.45;;;2.90;;
39848;SDS011;25518;47.878;15.914;2023-06-04T16:54:20;5.25;;;2.80;;
39848;SDS011;25518;47.878;15.914;2023-06-04T16:57:10;7.80;;;2.92;;
39848;SDS011;25518;47.878;15.914;2023-06-04T16:59:59;6.95;;;2.92;;
39848;SDS011;25518;47.878;15.914;2023-06-04T17:02:49;7.30;;;3.17;;
39848;SDS011;25518;47.878;15.914;2023-06-04T17:05:38;8.30;;;3.25;;
39848;SDS011;25518;47.878;15.914;2023-06-04T17:08:28;8.25;;;3.95;;